Stafford, Texas
Current Conditions -  °F | °C
As of 2:53 AM on Saturday 22 Nov 2014 (Local Time) from KSGR Reporting Station
Scattered Clouds Scattered Clouds  
Wind Chill: 63°   Ceiling: Unl
Heat Index: 63°   Visibility: 7mi
Dew Point: 61°   Wind: 7mph
Humidity: 93%   Direction: 100°E
Pressure: 30.08"   Gusts: NA
Location:  29.61°N, 95.55°W
Report Text: KSGR 220853Z AUTO 10006KT 7SM FEW028 SCT090 17/16 A3008 RMK AO2 SLP186 T01720161 58017
Loading
Personal Weather Stations






























Interactive Weather Map New forecast layout! Learn more

10-Day Weather Forecast

Advertisements
Track Severe Weather on mobile